| time (UTC) | temp F | wind direction | speed MPH | gust MPH | rain 1hr in | rain 24hr in | rain mn in | humidity % | barometer mb |
| 20260510141148 | 68 | 307 | 2.0 | 5.0 | 0.00 | 0.00 | 0.00 | 58 | 1013.3 |
| 20260510140106 | 68 | 355 | 2.0 | 4.0 | 0.00 | 0.00 | 0.00 | 58 | 1013.3 |
| 20260510135105 | 68 | 335 | 3.0 | 5.0 | 0.00 | 0.00 | 0.00 | 57 | 1013.2 |
| 20260510134103 | 68 | 350 | 3.0 | 4.0 | 0.00 | 0.00 | 0.00 | 57 | 1013.4 |
| 20260510133102 | 68 | 346 | 1.0 | 3.0 | 0.00 | 0.00 | 0.00 | 57 | 1013.4 |
| 20260510132101 | 68 | 53 | 2.0 | 5.0 | 0.00 | 0.00 | 0.00 | 56 | 1013.5 |
| 20260510131100 | 68 | 42 | 3.0 | 5.0 | 0.00 | 0.00 | 0.00 | 55 | 1013.4 |
| 20260510130058 | 68 | 41 | 3.0 | 5.0 | 0.00 | 0.00 | 0.00 | 55 | 1013.4 |
| 20260510125107 | 69 | 356 | 5.0 | 11.0 | 0.00 | 0.00 | 0.00 | 56 | 1013.4 |
| 20260510124107 | 69 | 350 | 3.0 | 8.0 | 0.00 | 0.00 | 0.00 | 55 | 1013.4 |
| 20260510123055 | 69 | 5 | 4.0 | 8.0 | 0.00 | 0.00 | 0.00 | 55 | 1013.5 |
| 20260510122054 | 68 | 2 | 3.0 | 6.0 | 0.00 | 0.00 | 0.00 | 55 | 1013.6 |
| 20260510121053 | 68 | 354 | 3.0 | 8.0 | 0.00 | 0.00 | 0.00 | 54 | 1013.7 |
| 20260510120051 | 68 | 20 | 6.0 | 11.0 | 0.00 | 0.00 | 0.00 | 54 | 1013.8 |
| 20260510115051 | 67 | 7 | 3.0 | 6.0 | 0.00 | 0.00 | 0.00 | 54 | 1013.9 |
| 20260510114050 | 67 | 346 | 3.0 | 5.0 | 0.00 | 0.00 | 0.00 | 54 | 1014.0 |
| 20260510113048 | 67 | 47 | 5.0 | 10.0 | 0.00 | 0.00 | 0.00 | 55 | 1014.0 |
| 20260510112047 | 67 | 42 | 4.0 | 7.0 | 0.00 | 0.00 | 0.00 | 57 | 1014.1 |
| 20260510111106 | 67 | 26 | 5.0 | 8.0 | 0.00 | 0.00 | 0.00 | 56 | 1014.2 |
| 20260510110044 | 68 | 44 | 3.0 | 5.0 | 0.00 | 0.00 | 0.00 | 56 | 1014.3 |
| 20260510105044 | 67 | 10 | 3.0 | 4.0 | 0.00 | 0.00 | 0.00 | 57 | 1014.4 |
| 20260510104042 | 67 | 244 | 2.0 | 4.0 | 0.00 | 0.00 | 0.00 | 55 | 1014.4 |
| 20260510103041 | 67 | 339 | 3.0 | 5.0 | 0.00 | 0.00 | 0.00 | 55 | 1014.5 |
| 20260510102040 | 66 | 30 | 3.0 | 7.0 | 0.00 | 0.00 | 0.00 | 57 | 1014.4 |
| 20260510101039 | 66 | 297 | 2.0 | 5.0 | 0.00 | 0.00 | 0.00 | 57 | 1014.6 |
| 20260510100037 | 67 | 14 | 7.0 | 11.0 | 0.00 | 0.00 | 0.00 | 56 | 1014.6 |
| 20260510095037 | 66 | 271 | 2.0 | 4.0 | 0.00 | 0.00 | 0.00 | 55 | 1014.8 |
| 20260510094035 | 66 | 323 | 2.0 | 5.0 | 0.00 | 0.00 | 0.00 | 57 | 1014.9 |
| 20260510093054 | 66 | 305 | 3.0 | 6.0 | 0.00 | 0.00 | 0.00 | 55 | 1015.0 |
| 20260510092033 | 66 | 282 | 3.0 | 5.0 | 0.00 | 0.00 | 0.00 | 54 | 1015.0 |
| 20260510091031 | 66 | 0 | 3.0 | 4.0 | 0.00 | 0.00 | 0.00 | 55 | 1015.1 |
| 20260510090031 | 65 | 343 | 3.0 | 4.0 | 0.00 | 0.00 | 0.00 | 58 | 1015.1 |
| 20260510085030 | 64 | 354 | 3.0 | 4.0 | 0.00 | 0.00 | 0.00 | 57 | 1015.2 |
| 20260510084028 | 64 | 0 | 1.0 | 3.0 | 0.00 | 0.00 | 0.00 | 57 | 1015.2 |
| 20260510083027 | 64 | 58 | 3.0 | 4.0 | 0.00 | 0.00 | 0.00 | 57 | 1015.4 |
| 20260510082025 | 64 | 9 | 4.0 | 7.0 | 0.00 | 0.00 | 0.00 | 56 | 1015.4 |
| 20260510081025 | 63 | 28 | 3.0 | 6.0 | 0.00 | 0.00 | 0.00 | 57 | 1015.3 |
| 20260510080023 | 64 | 24 | 3.0 | 5.0 | 0.00 | 0.00 | 0.00 | 57 | 1015.3 |
| 20260510075023 | 64 | 15 | 3.0 | 6.0 | 0.00 | 0.00 | 0.00 | 56 | 1015.4 |
| 20260510074102 | 64 | 354 | 2.0 | 4.0 | 0.00 | 0.00 | 0.00 | 56 | 1015.4 |
| 20260510073020 | 63 | 123 | 1.0 | 2.0 | 0.00 | 0.00 | 0.00 | 56 | 1015.4 |
| 20260510072019 | 62 | 334 | 1.0 | 2.0 | 0.00 | 0.00 | 0.00 | 58 | 1015.2 |
| 20260510071018 | 62 | 107 | 1.0 | 3.0 | 0.00 | 0.00 | 0.00 | 61 | 1015.3 |
| 20260510070016 | 62 | 97 | 2.0 | 5.0 | 0.00 | 0.00 | 0.00 | 63 | 1015.1 |
| 20260510065115 | 63 | 38 | 1.0 | 2.0 | 0.00 | 0.00 | 0.00 | 60 | 1015.2 |
| 20260510064115 | 63 | 54 | 2.0 | 3.0 | 0.00 | 0.00 | 0.00 | 60 | 1015.2 |
| 20260510063113 | 63 | 123 | 2.0 | 3.0 | 0.00 | 0.00 | 0.00 | 62 | 1015.3 |
| 20260510062112 | 60 | 124 | 2.0 | 3.0 | 0.00 | 0.00 | 0.00 | 70 | 1015.2 |
| 20260510061112 | 60 | 106 | 3.0 | 5.0 | 0.00 | 0.00 | 0.00 | 71 | 1015.2 |
| 20260510060110 | 60 | 104 | 2.0 | 4.0 | 0.00 | 0.00 | 0.00 | 68 | 1015.4 |
| 20260510055111 | 58 | 167 | 2.0 | 4.0 | 0.00 | 0.00 | 0.00 | 75 | 1015.4 |
| 20260510054109 | 57 | 167 | 3.0 | 5.0 | 0.00 | 0.00 | 0.00 | 76 | 1015.4 |
| 20260510053106 | 56 | 135 | 3.0 | 4.0 | 0.00 | 0.00 | 0.00 | 78 | 1015.3 |
| 20260510052105 | 55 | 145 | 3.0 | 5.0 | 0.00 | 0.00 | 0.00 | 81 | 1015.4 |
| 20260510051104 | 55 | 139 | 4.0 | 6.0 | 0.00 | 0.00 | 0.00 | 82 | 1015.4 |
| 20260510050123 | 54 | 129 | 5.0 | 7.0 | 0.00 | 0.00 | 0.00 | 82 | 1015.5 |
| 20260510045102 | 54 | 144 | 4.0 | 5.0 | 0.00 | 0.00 | 0.00 | 84 | 1015.4 |
| 20260510044101 | 53 | 153 | 1.0 | 5.0 | 0.00 | 0.00 | 0.00 | 84 | 1015.3 |
| 20260510043059 | 53 | 30 | 2.0 | 4.0 | 0.00 | 0.00 | 0.00 | 84 | 1015.4 |
| 20260510042058 | 53 | 81 | 2.0 | 4.0 | 0.00 | 0.00 | 0.00 | 84 | 1015.5 |
| 20260510041057 | 53 | 120 | 3.0 | 5.0 | 0.00 | 0.00 | 0.00 | 84 | 1015.6 |
| 20260510040056 | 53 | 126 | 2.0 | 5.0 | 0.00 | 0.00 | 0.00 | 84 | 1015.5 |
| 20260510035055 | 53 | 182 | 4.0 | 5.0 | 0.00 | 0.00 | 0.00 | 84 | 1015.7 |
| 20260510034134 | 53 | 133 | 3.0 | 6.0 | 0.00 | 0.00 | 0.00 | 85 | 1015.7 |
| 20260510033052 | 53 | 119 | 2.0 | 5.0 | 0.00 | 0.00 | 0.00 | 84 | 1015.7 |
| 20260510032051 | 53 | 129 | 2.0 | 3.0 | 0.00 | 0.00 | 0.00 | 84 | 1015.8 |
| 20260510031050 | 53 | 131 | 2.0 | 4.0 | 0.00 | 0.00 | 0.00 | 83 | 1015.8 |
| 20260510030049 | 54 | 134 | 3.0 | 4.0 | 0.00 | 0.00 | 0.00 | 82 | 1016.0 |
| 20260510025047 | 54 | 122 | 2.0 | 4.0 | 0.00 | 0.00 | 0.00 | 83 | 1016.0 |
| 20260510024108 | 54 | 154 | 3.0 | 5.0 | 0.00 | 0.00 | 0.00 | 82 | 1016.1 |
| 20260510023046 | 54 | 147 | 3.0 | 4.0 | 0.00 | 0.00 | 0.00 | 81 | 1016.1 |
| 20260510022044 | 54 | 127 | 2.0 | 2.0 | 0.00 | 0.00 | 0.00 | 81 | 1016.2 |
| 20260510021044 | 54 | 115 | 1.0 | 2.0 | 0.00 | 0.00 | 0.00 | 81 | 1016.2 |
| 20260510020042 | 54 | 184 | 1.0 | 3.0 | 0.00 | 0.00 | 0.00 | 80 | 1016.3 |
| 20260510015101 | 54 | 137 | 3.0 | 5.0 | 0.00 | 0.00 | 0.00 | 81 | 1016.3 |
| 20260510014040 | 54 | 111 | 2.0 | 5.0 | 0.00 | 0.00 | 0.00 | 80 | 1016.4 |
| 20260510013038 | 54 | 129 | 2.0 | 4.0 | 0.00 | 0.00 | 0.00 | 79 | 1016.3 |
| 20260510012037 | 55 | 118 | 2.0 | 5.0 | 0.00 | 0.00 | 0.00 | 77 | 1016.2 |
| 20260510011037 | 56 | 125 | 2.0 | 4.0 | 0.00 | 0.00 | 0.00 | 75 | 1016.3 |
| 20260510010035 | 55 | 153 | 4.0 | 7.0 | 0.00 | 0.00 | 0.00 | 76 | 1016.3 |
| 20260510005034 | 55 | 131 | 5.0 | 7.0 | 0.00 | 0.00 | 0.00 | 78 | 1016.3 |
| 20260510004033 | 56 | 148 | 4.0 | 5.0 | 0.00 | 0.00 | 0.00 | 76 | 1016.5 |
| 20260510003032 | 55 | 157 | 4.0 | 6.0 | 0.00 | 0.00 | 0.00 | 75 | 1016.5 |
| 20260510002031 | 55 | 153 | 3.0 | 5.0 | 0.00 | 0.00 | 0.00 | 77 | 1016.6 |
| 20260510001029 | 55 | 151 | 5.0 | 7.0 | 0.00 | 0.00 | 0.00 | 77 | 1016.6 |
| 20260510000028 | 55 | 153 | 3.0 | 4.0 | 0.00 | 0.00 | 0.00 | 78 | 1016.7 |
| 20260509235027 | 55 | 151 | 4.0 | 5.0 | 0.00 | 0.00 | 0.00 | 77 | 1016.8 |
| 20260509234046 | 55 | 124 | 3.0 | 5.0 | 0.00 | 0.00 | 0.00 | 78 | 1016.9 |
| 20260509233106 | 55 | 120 | 2.0 | 3.0 | 0.00 | 0.00 | 0.00 | 78 | 1016.8 |
| 20260509232024 | 56 | 141 | 3.0 | 4.0 | 0.00 | 0.00 | 0.00 | 77 | 1016.9 |
| 20260509231023 | 56 | 127 | 2.0 | 4.0 | 0.00 | 0.00 | 0.00 | 78 | 1016.9 |
| 20260509230021 | 56 | 138 | 2.0 | 3.0 | 0.00 | 0.00 | 0.00 | 75 | 1016.8 |
| 20260509225020 | 57 | 115 | 2.0 | 5.0 | 0.00 | 0.00 | 0.00 | 74 | 1016.9 |
| 20260509224019 | 57 | 199 | 3.0 | 3.0 | 0.00 | 0.00 | 0.00 | 73 | 1016.9 |
| 20260509223159 | 58 | 144 | 1.0 | 3.0 | 0.00 | 0.00 | 0.00 | 74 | 1017.0 |
| 20260509222036 | 58 | 0.0 | 2.0 | 0.00 | 0.00 | 0.00 | 74 | 1017.2 | |
| 20260509221115 | 59 | 83 | 0.0 | 2.0 | 0.00 | 0.00 | 0.00 | 73 | 1017.2 |
| 20260509220114 | 59 | 111 | 0.0 | 1.0 | 0.00 | 0.00 | 0.00 | 73 | 1017.3 |
| 20260509215133 | 59 | 133 | 0.0 | 2.0 | 0.00 | 0.00 | 0.00 | 73 | 1017.4 |
| 20260509214111 | 59 | 114 | 4.0 | 5.0 | 0.00 | 0.00 | 0.00 | 73 | 1017.4 |
| 20260509213131 | 60 | 113 | 2.0 | 2.0 | 0.00 | 0.00 | 0.00 | 69 | 1017.4 |
| 20260509212109 | 60 | 148 | 2.0 | 3.0 | 0.00 | 0.00 | 0.00 | 70 | 1017.4 |
| 20260509211108 | 60 | 129 | 2.0 | 3.0 | 0.00 | 0.00 | 0.00 | 70 | 1017.4 |
| 20260509210107 | 60 | 137 | 2.0 | 3.0 | 0.00 | 0.00 | 0.00 | 68 | 1017.4 |
| 20260509205105 | 61 | 144 | 2.0 | 3.0 | 0.00 | 0.00 | 0.00 | 67 | 1017.4 |
| 20260509204104 | 62 | 45 | 2.0 | 3.0 | 0.00 | 0.00 | 0.00 | 64 | 1017.3 |
| 20260509203104 | 62 | 27 | 2.0 | 3.0 | 0.00 | 0.00 | 0.00 | 61 | 1017.3 |
| 20260509202102 | 62 | 274 | 1.0 | 2.0 | 0.00 | 0.00 | 0.00 | 61 | 1017.3 |
| 20260509201101 | 62 | 0.0 | 0.0 | 0.00 | 0.00 | 0.00 | 65 | 1017.4 | |
| 20260509200100 | 62 | 89 | 1.0 | 1.0 | 0.00 | 0.00 | 0.00 | 61 | 1017.4 |
| 20260509195058 | 62 | 96 | 1.0 | 2.0 | 0.00 | 0.00 | 0.00 | 61 | 1017.3 |
| 20260509194057 | 63 | 135 | 2.0 | 2.0 | 0.00 | 0.00 | 0.00 | 61 | 1017.3 |
| 20260509193056 | 64 | 0.0 | 0.0 | 0.00 | 0.00 | 0.00 | 61 | 1017.3 | |
| 20260509192054 | 65 | 120 | 2.0 | 2.0 | 0.00 | 0.00 | 0.00 | 58 | 1017.3 |
| 20260509191113 | 65 | 144 | 2.0 | 2.0 | 0.00 | 0.00 | 0.00 | 57 | 1017.2 |
| 20260509190053 | 65 | 135 | 2.0 | 3.0 | 0.00 | 0.00 | 0.00 | 56 | 1017.3 |
| 20260509185051 | 67 | 111 | 2.0 | 3.0 | 0.00 | 0.00 | 0.00 | 55 | 1017.1 |
| 20260509184049 | 69 | 103 | 1.0 | 3.0 | 0.00 | 0.00 | 0.00 | 51 | 1017.2 |
| 20260509183048 | 70 | 90 | 2.0 | 4.0 | 0.00 | 0.00 | 0.00 | 46 | 1017.1 |
| 20260509182047 | 71 | 73 | 3.0 | 4.0 | 0.00 | 0.00 | 0.00 | 42 | 1017.1 |
| 20260509181046 | 72 | 68 | 2.0 | 4.0 | 0.00 | 0.00 | 0.00 | 41 | 1017.1 |
| 20260509180044 | 72 | 93 | 3.0 | 5.0 | 0.00 | 0.00 | 0.00 | 40 | 1017.1 |
| 20260509175103 | 73 | 70 | 3.0 | 4.0 | 0.00 | 0.00 | 0.00 | 40 | 1017.0 |
| 20260509174102 | 74 | 55 | 5.0 | 6.0 | 0.00 | 0.00 | 0.00 | 36 | 1017.0 |
| 20260509173041 | 74 | 104 | 2.0 | 6.0 | 0.00 | 0.00 | 0.00 | 38 | 1017.0 |
| 20260509172100 | 74 | 145 | 4.0 | 5.0 | 0.00 | 0.00 | 0.00 | 37 | 1017.0 |
| 20260509171038 | 74 | 109 | 3.0 | 8.0 | 0.00 | 0.00 | 0.00 | 37 | 1017.0 |
| 20260509170038 | 74 | 123 | 3.0 | 5.0 | 0.00 | 0.00 | 0.00 | 36 | 1017.0 |
| 20260509165056 | 74 | 135 | 3.0 | 9.0 | 0.00 | 0.00 | 0.00 | 36 | 1017.0 |
| 20260509164034 | 75 | 103 | 3.0 | 5.0 | 0.00 | 0.00 | 0.00 | 36 | 1017.1 |
| 20260509163034 | 74 | 120 | 3.0 | 4.0 | 0.00 | 0.00 | 0.00 | 36 | 1017.3 |
| 20260509162032 | 74 | 105 | 3.0 | 6.0 | 0.00 | 0.00 | 0.00 | 37 | 1017.3 |
| 20260509161030 | 75 | 98 | 5.0 | 8.0 | 0.00 | 0.00 | 0.00 | 36 | 1017.4 |
| 20260509160049 | 74 | 92 | 3.0 | 5.0 | 0.00 | 0.00 | 0.00 | 37 | 1017.4 |
| 20260509155029 | 74 | 135 | 4.0 | 5.0 | 0.00 | 0.00 | 0.00 | 38 | 1017.5 |
| 20260509154027 | 74 | 113 | 5.0 | 10.0 | 0.00 | 0.00 | 0.00 | 39 | 1017.7 |
| 20260509153026 | 74 | 114 | 3.0 | 5.0 | 0.00 | 0.00 | 0.00 | 38 | 1017.7 |
| 20260509152045 | 73 | 83 | 6.0 | 9.0 | 0.00 | 0.00 | 0.00 | 38 | 1017.6 |
| 20260509151024 | 73 | 67 | 3.0 | 5.0 | 0.00 | 0.00 | 0.00 | 37 | 1017.7 |
| 20260509150027 | 73 | 132 | 4.0 | 9.0 | 0.00 | 0.00 | 0.00 | 36 | 1017.7 |
| 20260509145021 | 73 | 85 | 7.0 | 9.0 | 0.00 | 0.00 | 0.00 | 39 | 1017.7 |
| 20260509144020 | 73 | 73 | 6.0 | 10.0 | 0.00 | 0.00 | 0.00 | 39 | 1017.6 |
| 20260509143020 | 73 | 72 | 4.0 | 7.0 | 0.00 | 0.00 | 0.00 | 41 | 1017.9 |
| 20260509142018 | 73 | 47 | 4.0 | 7.0 | 0.00 | 0.00 | 0.00 | 38 | 1018.2 |